sensor_id;sensor_type;location;lat;lon;timestamp;temperature;humidity
67186;HTU21D;54116;53.518;49.398;2023-04-06T00:02:22;-4.94;118.99
67186;HTU21D;54116;53.518;49.398;2023-04-06T00:04:48;-4.17;118.99
67186;HTU21D;54116;53.518;49.398;2023-04-06T00:07:15;-4.13;118.99
67186;HTU21D;54116;53.518;49.398;2023-04-06T00:09:41;-4.84;118.99
67186;HTU21D;54116;53.518;49.398;2023-04-06T00:12:07;-5.07;118.99
67186;HTU21D;54116;53.518;49.398;2023-04-06T00:14:33;-4.45;118.99
67186;HTU21D;54116;53.518;49.398;2023-04-06T00:16:59;-4.04;118.99
67186;HTU21D;54116;53.518;49.398;2023-04-06T00:19:25;-3.98;118.99
67186;HTU21D;54116;53.518;49.398;2023-04-06T00:21:52;-6.00;118.99
67186;HTU21D;54116;53.518;49.398;2023-04-06T00:24:17;-9.20;118.99
67186;HTU21D;54116;53.518;49.398;2023-04-06T00:26:44;-5.17;118.99
67186;HTU21D;54116;53.518;49.398;2023-04-06T00:29:10;-3.70;118.99
67186;HTU21D;54116;53.518;49.398;2023-04-06T00:31:36;-3.39;118.99
67186;HTU21D;54116;53.518;49.398;2023-04-06T00:34:02;-4.05;118.99
67186;HTU21D;54116;53.518;49.398;2023-04-06T00:36:28;-2.46;118.99
67186;HTU21D;54116;53.518;49.398;2023-04-06T00:38:54;-3.72;118.99
67186;HTU21D;54116;53.518;49.398;2023-04-06T00:41:21;-4.05;118.99
67186;HTU21D;54116;53.518;49.398;2023-04-06T00:43:47;-2.20;118.99
67186;HTU21D;54116;53.518;49.398;2023-04-06T00:46:13;-2.51;118.99
67186;HTU21D;54116;53.518;49.398;2023-04-06T00:48:39;-0.72;118.99
67186;HTU21D;54116;53.518;49.398;2023-04-06T00:51:06;0.67;118.99
67186;HTU21D;54116;53.518;49.398;2023-04-06T00:53:32;-10.57;118.99
67186;HTU21D;54116;53.518;49.398;2023-04-06T00:55:58;-11.16;118.99
67186;HTU21D;54116;53.518;49.398;2023-04-06T00:58:24;-11.24;118.99
67186;HTU21D;54116;53.518;49.398;2023-04-06T01:00:50;1.56;118.99
67186;HTU21D;54116;53.518;49.398;2023-04-06T01:03:16;-8.98;118.99
67186;HTU21D;54116;53.518;49.398;2023-04-06T01:05:42;-9.98;118.99
67186;HTU21D;54116;53.518;49.398;2023-04-06T01:08:09;-2.17;118.99
67186;HTU21D;54116;53.518;49.398;2023-04-06T01:10:36;-3.06;118.99
67186;HTU21D;54116;53.518;49.398;2023-04-06T01:13:02;-9.89;118.99
67186;HTU21D;54116;53.518;49.398;2023-04-06T01:15:28;-10.62;118.99
67186;HTU21D;54116;53.518;49.398;2023-04-06T01:17:55;-6.90;118.99
67186;HTU21D;54116;53.518;49.398;2023-04-06T01:20:21;-1.77;118.99
67186;HTU21D;54116;53.518;49.398;2023-04-06T01:22:47;-11.05;118.99
67186;HTU21D;54116;53.518;49.398;2023-04-06T01:25:13;-4.00;118.99
67186;HTU21D;54116;53.518;49.398;2023-04-06T01:27:39;-10.60;118.99
67186;HTU21D;54116;53.518;49.398;2023-04-06T01:30:05;-6.57;118.99
67186;HTU21D;54116;53.518;49.398;2023-04-06T01:32:32;-11.07;118.99
67186;HTU21D;54116;53.518;49.398;2023-04-06T01:34:58;-5.08;118.99
67186;HTU21D;54116;53.518;49.398;2023-04-06T01:37:24;-9.89;118.99
67186;HTU21D;54116;53.518;49.398;2023-04-06T01:39:50;-10.94;118.99
67186;HTU21D;54116;53.518;49.398;2023-04-06T01:42:16;-10.72;118.99
67186;HTU21D;54116;53.518;49.398;2023-04-06T01:44:42;1.92;118.99
67186;HTU21D;54116;53.518;49.398;2023-04-06T01:47:08;1.61;118.99
67186;HTU21D;54116;53.518;49.398;2023-04-06T01:49:34;-5.84;118.99
67186;HTU21D;54116;53.518;49.398;2023-04-06T01:52:00;2.37;118.99
67186;HTU21D;54116;53.518;49.398;2023-04-06T01:54:26;-9.32;118.99
67186;HTU21D;54116;53.518;49.398;2023-04-06T01:56:53;-10.81;118.99
67186;HTU21D;54116;53.518;49.398;2023-04-06T01:59:19;2.44;118.99
67186;HTU21D;54116;53.518;49.398;2023-04-06T02:01:45;2.30;118.99
67186;HTU21D;54116;53.518;49.398;2023-04-06T02:04:11;2.09;118.99
67186;HTU21D;54116;53.518;49.398;2023-04-06T02:06:37;2.96;118.99
67186;HTU21D;54116;53.518;49.398;2023-04-06T02:09:03;2.55;118.99
67186;HTU21D;54116;53.518;49.398;2023-04-06T02:11:29;2.82;118.99
67186;HTU21D;54116;53.518;49.398;2023-04-06T02:13:56;2.30;118.99
67186;HTU21D;54116;53.518;49.398;2023-04-06T02:16:22;2.72;118.99
67186;HTU21D;54116;53.518;49.398;2023-04-06T02:18:49;-6.65;118.99
67186;HTU21D;54116;53.518;49.398;2023-04-06T02:21:16;-10.56;118.99
67186;HTU21D;54116;53.518;49.398;2023-04-06T02:23:46;-0.79;118.99
67186;HTU21D;54116;53.518;49.398;2023-04-06T02:26:13;2.84;118.99
67186;HTU21D;54116;53.518;49.398;2023-04-06T02:28:40;-9.40;118.99
67186;HTU21D;54116;53.518;49.398;2023-04-06T02:31:06;-7.62;118.99
67186;HTU21D;54116;53.518;49.398;2023-04-06T02:33:32;-0.30;118.99
67186;HTU21D;54116;53.518;49.398;2023-04-06T02:35:58;2.38;118.99
67186;HTU21D;54116;53.518;49.398;2023-04-06T02:38:24;2.71;118.99
67186;HTU21D;54116;53.518;49.398;2023-04-06T02:40:50;3.09;118.99
67186;HTU21D;54116;53.518;49.398;2023-04-06T02:43:16;-7.33;118.99
67186;HTU21D;54116;53.518;49.398;2023-04-06T02:45:43;3.28;118.99
67186;HTU21D;54116;53.518;49.398;2023-04-06T02:48:09;-2.45;118.99
67186;HTU21D;54116;53.518;49.398;2023-04-06T02:50:35;-6.00;118.99
67186;HTU21D;54116;53.518;49.398;2023-04-06T02:53:00;4.41;118.99
67186;HTU21D;54116;53.518;49.398;2023-04-06T02:55:28;0.13;118.99
67186;HTU21D;54116;53.518;49.398;2023-04-06T02:57:54;2.43;118.99
67186;HTU21D;54116;53.518;49.398;2023-04-06T03:00:19;3.59;118.99
67186;HTU21D;54116;53.518;49.398;2023-04-06T03:02:46;5.52;118.99
67186;HTU21D;54116;53.518;49.398;2023-04-06T03:05:12;4.02;118.99
67186;HTU21D;54116;53.518;49.398;2023-04-06T03:07:38;4.83;118.99
67186;HTU21D;54116;53.518;49.398;2023-04-06T03:10:04;5.60;118.99
67186;HTU21D;54116;53.518;49.398;2023-04-06T03:12:31;5.60;118.99
67186;HTU21D;54116;53.518;49.398;2023-04-06T03:14:56;4.20;118.99
67186;HTU21D;54116;53.518;49.398;2023-04-06T03:17:22;6.38;118.99
67186;HTU21D;54116;53.518;49.398;2023-04-06T03:19:48;5.57;118.99
67186;HTU21D;54116;53.518;49.398;2023-04-06T03:22:14;5.99;118.99
67186;HTU21D;54116;53.518;49.398;2023-04-06T03:24:40;6.83;118.99
67186;HTU21D;54116;53.518;49.398;2023-04-06T03:27:06;6.45;118.99
67186;HTU21D;54116;53.518;49.398;2023-04-06T03:29:32;7.25;118.99
67186;HTU21D;54116;53.518;49.398;2023-04-06T03:31:58;7.50;118.99
67186;HTU21D;54116;53.518;49.398;2023-04-06T03:34:24;8.03;118.99
67186;HTU21D;54116;53.518;49.398;2023-04-06T03:36:50;7.89;118.99
67186;HTU21D;54116;53.518;49.398;2023-04-06T03:39:16;7.64;118.99
67186;HTU21D;54116;53.518;49.398;2023-04-06T03:41:42;7.43;118.99
67186;HTU21D;54116;53.518;49.398;2023-04-06T03:44:10;7.41;118.99
67186;HTU21D;54116;53.518;49.398;2023-04-06T03:46:36;8.26;118.99
67186;HTU21D;54116;53.518;49.398;2023-04-06T03:49:02;8.53;118.99
67186;HTU21D;54116;53.518;49.398;2023-04-06T03:51:28;7.93;118.99
67186;HTU21D;54116;53.518;49.398;2023-04-06T03:53:55;7.92;118.99
67186;HTU21D;54116;53.518;49.398;2023-04-06T03:56:22;7.31;118.99
67186;HTU21D;54116;53.518;49.398;2023-04-06T03:58:48;7.81;118.99
67186;HTU21D;54116;53.518;49.398;2023-04-06T04:01:17;8.16;118.99
67186;HTU21D;54116;53.518;49.398;2023-04-06T04:03:44;8.37;118.99
67186;HTU21D;54116;53.518;49.398;2023-04-06T04:06:10;8.82;118.99
67186;HTU21D;54116;53.518;49.398;2023-04-06T04:08:36;9.44;118.99
67186;HTU21D;54116;53.518;49.398;2023-04-06T04:11:02;10.43;118.99
67186;HTU21D;54116;53.518;49.398;2023-04-06T04:13:28;9.34;118.99
67186;HTU21D;54116;53.518;49.398;2023-04-06T04:15:54;3.72;118.99
67186;HTU21D;54116;53.518;49.398;2023-04-06T04:18:20;10.16;118.99
67186;HTU21D;54116;53.518;49.398;2023-04-06T04:20:46;8.42;118.99
67186;HTU21D;54116;53.518;49.398;2023-04-06T04:25:57;12.60;118.99
67186;HTU21D;54116;53.518;49.398;2023-04-06T04:28:23;9.61;118.99
67186;HTU21D;54116;53.518;49.398;2023-04-06T04:30:49;12.94;118.99
67186;HTU21D;54116;53.518;49.398;2023-04-06T04:33:15;10.79;118.99
67186;HTU21D;54116;53.518;49.398;2023-04-06T04:35:41;13.65;118.99
67186;HTU21D;54116;53.518;49.398;2023-04-06T04:38:07;13.53;118.99
67186;HTU21D;54116;53.518;49.398;2023-04-06T04:40:33;7.74;118.99
67186;HTU21D;54116;53.518;49.398;2023-04-06T04:43:00;13.92;118.99
67186;HTU21D;54116;53.518;49.398;2023-04-06T04:45:26;8.48;118.99
67186;HTU21D;54116;53.518;49.398;2023-04-06T04:47:52;8.61;118.99
67186;HTU21D;54116;53.518;49.398;2023-04-06T04:50:18;12.85;118.99
67186;HTU21D;54116;53.518;49.398;2023-04-06T04:52:44;0.32;118.99
67186;HTU21D;54116;53.518;49.398;2023-04-06T04:55:10;2.32;118.99
67186;HTU21D;54116;53.518;49.398;2023-04-06T04:57:36;0.36;118.99
67186;HTU21D;54116;53.518;49.398;2023-04-06T05:00:02;1.14;118.99
67186;HTU21D;54116;53.518;49.398;2023-04-06T05:02:29;1.90;118.99
67186;HTU21D;54116;53.518;49.398;2023-04-06T05:04:55;2.78;118.99
67186;HTU21D;54116;53.518;49.398;2023-04-06T05:07:21;2.93;118.99
67186;HTU21D;54116;53.518;49.398;2023-04-06T05:09:47;2.78;118.99
67186;HTU21D;54116;53.518;49.398;2023-04-06T05:12:14;1.35;118.99
67186;HTU21D;54116;53.518;49.398;2023-04-06T05:14:40;4.16;118.99
67186;HTU21D;54116;53.518;49.398;2023-04-06T05:17:07;4.43;118.99
67186;HTU21D;54116;53.518;49.398;2023-04-06T05:19:33;4.98;118.99
67186;HTU21D;54116;53.518;49.398;2023-04-06T05:21:59;3.02;118.99
67186;HTU21D;54116;53.518;49.398;2023-04-06T05:24:25;2.95;118.99
67186;HTU21D;54116;53.518;49.398;2023-04-06T05:26:51;1.73;118.99
67186;HTU21D;54116;53.518;49.398;2023-04-06T05:29:18;-0.82;118.99
67186;HTU21D;54116;53.518;49.398;2023-04-06T05:31:46;1.19;118.99
67186;HTU21D;54116;53.518;49.398;2023-04-06T05:34:12;-1.75;118.99
67186;HTU21D;54116;53.518;49.398;2023-04-06T05:36:38;-1.88;118.99
67186;HTU21D;54116;53.518;49.398;2023-04-06T05:39:06;-0.96;118.99
67186;HTU21D;54116;53.518;49.398;2023-04-06T05:41:33;1.53;118.99
67186;HTU21D;54116;53.518;49.398;2023-04-06T05:43:59;2.80;118.99
67186;HTU21D;54116;53.518;49.398;2023-04-06T05:46:25;3.56;118.99
67186;HTU21D;54116;53.518;49.398;2023-04-06T05:48:51;5.30;118.99
67186;HTU21D;54116;53.518;49.398;2023-04-06T05:51:17;5.68;118.99
67186;HTU21D;54116;53.518;49.398;2023-04-06T05:56:28;6.06;118.99
67186;HTU21D;54116;53.518;49.398;2023-04-06T05:58:56;6.61;118.99
67186;HTU21D;54116;53.518;49.398;2023-04-06T06:01:22;7.32;118.99
67186;HTU21D;54116;53.518;49.398;2023-04-06T06:03:48;8.60;118.99
67186;HTU21D;54116;53.518;49.398;2023-04-06T06:06:14;8.50;118.99
67186;HTU21D;54116;53.518;49.398;2023-04-06T06:08:40;9.83;118.99
67186;HTU21D;54116;53.518;49.398;2023-04-06T06:11:06;8.28;118.99
67186;HTU21D;54116;53.518;49.398;2023-04-06T06:13:32;7.41;118.99
67186;HTU21D;54116;53.518;49.398;2023-04-06T06:15:58;6.79;118.99
67186;HTU21D;54116;53.518;49.398;2023-04-06T06:18:25;7.72;118.99
67186;HTU21D;54116;53.518;49.398;2023-04-06T06:20:51;7.10;118.99
67186;HTU21D;54116;53.518;49.398;2023-04-06T06:23:17;7.65;118.99
67186;HTU21D;54116;53.518;49.398;2023-04-06T06:25:43;7.44;118.99
67186;HTU21D;54116;53.518;49.398;2023-04-06T06:28:28;7.29;118.99
67186;HTU21D;54116;53.518;49.398;2023-04-06T06:31:00;8.72;118.99
67186;HTU21D;54116;53.518;49.398;2023-04-06T06:33:26;8.04;118.99
67186;HTU21D;54116;53.518;49.398;2023-04-06T06:35:52;8.02;118.99
67186;HTU21D;54116;53.518;49.398;2023-04-06T06:38:19;7.59;118.99
67186;HTU21D;54116;53.518;49.398;2023-04-06T06:40:46;8.02;118.99
67186;HTU21D;54116;53.518;49.398;2023-04-06T06:43:12;7.82;118.99
67186;HTU21D;54116;53.518;49.398;2023-04-06T06:45:38;7.54;118.99
67186;HTU21D;54116;53.518;49.398;2023-04-06T06:48:04;6.99;118.99
67186;HTU21D;54116;53.518;49.398;2023-04-06T06:50:30;7.93;118.99
67186;HTU21D;54116;53.518;49.398;2023-04-06T06:52:56;7.40;118.99
67186;HTU21D;54116;53.518;49.398;2023-04-06T06:55:23;7.70;118.99
67186;HTU21D;54116;53.518;49.398;2023-04-06T06:57:49;7.89;118.99
67186;HTU21D;54116;53.518;49.398;2023-04-06T07:00:15;8.03;118.99
67186;HTU21D;54116;53.518;49.398;2023-04-06T07:03:00;7.17;118.99
67186;HTU21D;54116;53.518;49.398;2023-04-06T07:05:26;7.60;118.99
67186;HTU21D;54116;53.518;49.398;2023-04-06T07:07:53;7.73;118.99
67186;HTU21D;54116;53.518;49.398;2023-04-06T07:10:19;8.08;118.99
67186;HTU21D;54116;53.518;49.398;2023-04-06T07:13:03;7.61;118.99
67186;HTU21D;54116;53.518;49.398;2023-04-06T07:15:30;7.65;118.99
67186;HTU21D;54116;53.518;49.398;2023-04-06T07:18:16;8.48;118.99
67186;HTU21D;54116;53.518;49.398;2023-04-06T07:20:42;7.97;118.99
67186;HTU21D;54116;53.518;49.398;2023-04-06T07:23:45;6.79;118.99
67186;HTU21D;54116;53.518;49.398;2023-04-06T07:26:13;7.03;118.99
67186;HTU21D;54116;53.518;49.398;2023-04-06T07:34:09;7.85;118.99
67186;HTU21D;54116;53.518;49.398;2023-04-06T07:36:35;6.72;118.99
67186;HTU21D;54116;53.518;49.398;2023-04-06T07:39:01;6.88;118.99
67186;HTU21D;54116;53.518;49.398;2023-04-06T07:41:27;7.85;118.99
67186;HTU21D;54116;53.518;49.398;2023-04-06T07:47:02;7.83;118.99
67186;HTU21D;54116;53.518;49.398;2023-04-06T07:49:30;7.26;118.99
67186;HTU21D;54116;53.518;49.398;2023-04-06T07:51:56;7.81;118.99
67186;HTU21D;54116;53.518;49.398;2023-04-06T07:54:22;7.23;118.99
67186;HTU21D;54116;53.518;49.398;2023-04-06T07:57:07;6.91;118.99
67186;HTU21D;54116;53.518;49.398;2023-04-06T07:59:33;7.97;118.99
67186;HTU21D;54116;53.518;49.398;2023-04-06T08:05:02;7.68;118.99
67186;HTU21D;54116;53.518;49.398;2023-04-06T08:08:06;8.39;118.99
67186;HTU21D;54116;53.518;49.398;2023-04-06T08:10:32;7.74;118.99
67186;HTU21D;54116;53.518;49.398;2023-04-06T08:13:17;8.35;118.99
67186;HTU21D;54116;53.518;49.398;2023-04-06T08:18:28;7.72;118.99
67186;HTU21D;54116;53.518;49.398;2023-04-06T08:20:56;7.18;118.99
67186;HTU21D;54116;53.518;49.398;2023-04-06T08:23:41;6.19;118.99
67186;HTU21D;54116;53.518;49.398;2023-04-06T08:26:07;6.48;118.99
67186;HTU21D;54116;53.518;49.398;2023-04-06T08:28:52;7.17;118.99
67186;HTU21D;54116;53.518;49.398;2023-04-06T08:31:19;8.32;118.99
67186;HTU21D;54116;53.518;49.398;2023-04-06T08:37:08;8.60;118.99
67186;HTU21D;54116;53.518;49.398;2023-04-06T08:39:52;8.06;118.99
67186;HTU21D;54116;53.518;49.398;2023-04-06T08:42:39;8.16;118.99
67186;HTU21D;54116;53.518;49.398;2023-04-06T08:45:25;7.71;118.99
67186;HTU21D;54116;53.518;49.398;2023-04-06T08:47:51;7.53;118.99
67186;HTU21D;54116;53.518;49.398;2023-04-06T08:50:21;7.04;118.99
67186;HTU21D;54116;53.518;49.398;2023-04-06T08:55:51;8.04;118.99
67186;HTU21D;54116;53.518;49.398;2023-04-06T08:58:18;7.96;118.99
67186;HTU21D;54116;53.518;49.398;2023-04-06T09:00:44;7.76;118.99
67186;HTU21D;54116;53.518;49.398;2023-04-06T09:03:12;8.64;118.99
67186;HTU21D;54116;53.518;49.398;2023-04-06T09:08:26;9.65;118.99
67186;HTU21D;54116;53.518;49.398;2023-04-06T09:10:53;7.69;118.99
67186;HTU21D;54116;53.518;49.398;2023-04-06T09:13:19;7.22;118.99
67186;HTU21D;54116;53.518;49.398;2023-04-06T09:16:05;7.02;118.99
67186;HTU21D;54116;53.518;49.398;2023-04-06T09:24:23;9.54;118.99
67186;HTU21D;54116;53.518;49.398;2023-04-06T09:26:56;8.80;118.99
67186;HTU21D;54116;53.518;49.398;2023-04-06T09:29:24;13.44;118.99
67186;HTU21D;54116;53.518;49.398;2023-04-06T09:31:52;7.90;118.99
67186;HTU21D;54116;53.518;49.398;2023-04-06T09:34:27;8.14;118.99
67186;HTU21D;54116;53.518;49.398;2023-04-06T09:40:03;8.12;118.99
67186;HTU21D;54116;53.518;49.398;2023-04-06T09:45:52;8.77;118.99
67186;HTU21D;54116;53.518;49.398;2023-04-06T09:51:23;12.55;118.99
67186;HTU21D;54116;53.518;49.398;2023-04-06T09:57:11;8.70;118.99
67186;HTU21D;54116;53.518;49.398;2023-04-06T10:02:58;8.92;118.99
67186;HTU21D;54116;53.518;49.398;2023-04-06T10:05:46;9.00;118.99
67186;HTU21D;54116;53.518;49.398;2023-04-06T10:08:33;9.11;118.99
67186;HTU21D;54116;53.518;49.398;2023-04-06T10:11:01;10.27;118.99
67186;HTU21D;54116;53.518;49.398;2023-04-06T10:14:04;10.40;118.99
67186;HTU21D;54116;53.518;49.398;2023-04-06T10:19:24;4.87;118.99
67186;HTU21D;54116;53.518;49.398;2023-04-06T10:22:12;5.65;118.99
67186;HTU21D;54116;53.518;49.398;2023-04-06T10:24:42;6.14;118.99
67186;HTU21D;54116;53.518;49.398;2023-04-06T10:31:07;7.02;118.99
67186;HTU21D;54116;53.518;49.398;2023-04-06T10:33:34;10.35;118.99
67186;HTU21D;54116;53.518;49.398;2023-04-06T10:36:23;10.65;118.99
67186;HTU21D;54116;53.518;49.398;2023-04-06T10:39:09;10.83;118.99
67186;HTU21D;54116;53.518;49.398;2023-04-06T10:41:54;6.73;118.99
67186;HTU21D;54116;53.518;49.398;2023-04-06T10:44:22;6.84;118.99
67186;HTU21D;54116;53.518;49.398;2023-04-06T10:46:56;6.80;118.99
67186;HTU21D;54116;53.518;49.398;2023-04-06T10:49:41;8.15;118.99
67186;HTU21D;54116;53.518;49.398;2023-04-06T10:52:25;7.55;118.99
67186;HTU21D;54116;53.518;49.398;2023-04-06T10:55:10;7.50;118.99
67186;HTU21D;54116;53.518;49.398;2023-04-06T10:57:42;7.72;118.99
67186;HTU21D;54116;53.518;49.398;2023-04-06T11:00:11;7.59;118.99
67186;HTU21D;54116;53.518;49.398;2023-04-06T11:02:59;10.97;118.99
67186;HTU21D;54116;53.518;49.398;2023-04-06T11:05:26;7.26;118.99
67186;HTU21D;54116;53.518;49.398;2023-04-06T11:07:52;8.03;118.99
67186;HTU21D;54116;53.518;49.398;2023-04-06T11:10:37;11.59;118.99
67186;HTU21D;54116;53.518;49.398;2023-04-06T11:13:03;11.57;118.99
67186;HTU21D;54116;53.518;49.398;2023-04-06T11:15:34;11.32;118.99
67186;HTU21D;54116;53.518;49.398;2023-04-06T11:27:08;6.11;118.99
67186;HTU21D;54116;53.518;49.398;2023-04-06T11:29:35;8.93;118.99
67186;HTU21D;54116;53.518;49.398;2023-04-06T11:32:21;9.47;118.99
67186;HTU21D;54116;53.518;49.398;2023-04-06T11:38:10;9.99;118.99
67186;HTU21D;54116;53.518;49.398;2023-04-06T11:40:36;11.02;118.99
67186;HTU21D;54116;53.518;49.398;2023-04-06T11:43:28;11.31;118.99
67186;HTU21D;54116;53.518;49.398;2023-04-06T11:54:35;11.56;118.99
67186;HTU21D;54116;53.518;49.398;2023-04-06T11:59:51;10.70;118.99
67186;HTU21D;54116;53.518;49.398;2023-04-06T12:02:18;7.22;118.99
67186;HTU21D;54116;53.518;49.398;2023-04-06T12:10:17;10.50;118.99
67186;HTU21D;54116;53.518;49.398;2023-04-06T12:12:43;11.13;118.99
67186;HTU21D;54116;53.518;49.398;2023-04-06T12:15:10;11.39;118.99
67186;HTU21D;54116;53.518;49.398;2023-04-06T12:17:36;11.60;118.99
67186;HTU21D;54116;53.518;49.398;2023-04-06T12:20:03;7.32;118.99
67186;HTU21D;54116;53.518;49.398;2023-04-06T12:22:29;6.91;118.99
67186;HTU21D;54116;53.518;49.398;2023-04-06T12:25:13;6.78;118.99
67186;HTU21D;54116;53.518;49.398;2023-04-06T12:30:47;6.54;118.99
67186;HTU21D;54116;53.518;49.398;2023-04-06T12:33:32;6.33;118.99
67186;HTU21D;54116;53.518;49.398;2023-04-06T12:35:58;6.28;118.99
67186;HTU21D;54116;53.518;49.398;2023-04-06T12:41:47;7.11;118.99
67186;HTU21D;54116;53.518;49.398;2023-04-06T12:44:13;11.71;118.99
67186;HTU21D;54116;53.518;49.398;2023-04-06T12:49:24;8.09;118.99
67186;HTU21D;54116;53.518;49.398;2023-04-06T12:51:50;7.75;118.99
67186;HTU21D;54116;53.518;49.398;2023-04-06T12:54:16;7.52;118.99
67186;HTU21D;54116;53.518;49.398;2023-04-06T12:59:27;11.52;118.99
67186;HTU21D;54116;53.518;49.398;2023-04-06T13:02:00;11.59;118.99
67186;HTU21D;54116;53.518;49.398;2023-04-06T13:04:26;11.90;118.99
67186;HTU21D;54116;53.518;49.398;2023-04-06T13:06:52;12.13;118.99
67186;HTU21D;54116;53.518;49.398;2023-04-06T13:09:18;12.12;118.99
67186;HTU21D;54116;53.518;49.398;2023-04-06T13:12:03;11.94;118.99
67186;HTU21D;54116;53.518;49.398;2023-04-06T13:14:47;11.48;118.99
67186;HTU21D;54116;53.518;49.398;2023-04-06T13:23:05;11.87;118.99
67186;HTU21D;54116;53.518;49.398;2023-04-06T13:26:00;11.59;118.99
67186;HTU21D;54116;53.518;49.398;2023-04-06T13:28:27;11.58;118.99
67186;HTU21D;54116;53.518;49.398;2023-04-06T13:30:54;11.58;118.99
67186;HTU21D;54116;53.518;49.398;2023-04-06T13:33:39;8.35;118.99
67186;HTU21D;54116;53.518;49.398;2023-04-06T13:36:23;8.20;118.99
67186;HTU21D;54116;53.518;49.398;2023-04-06T13:39:07;7.65;118.99
67186;HTU21D;54116;53.518;49.398;2023-04-06T13:41:54;7.93;118.99
67186;HTU21D;54116;53.518;49.398;2023-04-06T13:47:42;7.56;118.99
67186;HTU21D;54116;53.518;49.398;2023-04-06T13:50:09;8.09;118.99
67186;HTU21D;54116;53.518;49.398;2023-04-06T13:55:40;7.90;118.99
67186;HTU21D;54116;53.518;49.398;2023-04-06T13:58:06;7.61;118.99
67186;HTU21D;54116;53.518;49.398;2023-04-06T14:00:32;7.11;118.99
67186;HTU21D;54116;53.518;49.398;2023-04-06T14:02:58;8.44;118.99
67186;HTU21D;54116;53.518;49.398;2023-04-06T14:05:24;8.22;118.99
67186;HTU21D;54116;53.518;49.398;2023-04-06T14:07:52;11.26;118.99
67186;HTU21D;54116;53.518;49.398;2023-04-06T14:10:18;8.08;118.99
67186;HTU21D;54116;53.518;49.398;2023-04-06T14:12:46;7.28;118.99
67186;HTU21D;54116;53.518;49.398;2023-04-06T14:15:12;6.93;118.99
67186;HTU21D;54116;53.518;49.398;2023-04-06T14:17:57;7.86;118.99
67186;HTU21D;54116;53.518;49.398;2023-04-06T14:20:23;7.12;118.99
67186;HTU21D;54116;53.518;49.398;2023-04-06T14:25:37;6.43;118.99
67186;HTU21D;54116;53.518;49.398;2023-04-06T14:28:03;6.46;118.99
67186;HTU21D;54116;53.518;49.398;2023-04-06T14:30:47;6.69;118.99
67186;HTU21D;54116;53.518;49.398;2023-04-06T14:33:14;7.33;118.99
67186;HTU21D;54116;53.518;49.398;2023-04-06T14:35:41;6.41;118.99
67186;HTU21D;54116;53.518;49.398;2023-04-06T14:38:07;6.75;118.99
67186;HTU21D;54116;53.518;49.398;2023-04-06T14:40:35;7.22;118.99
67186;HTU21D;54116;53.518;49.398;2023-04-06T14:45:46;6.39;118.99
67186;HTU21D;54116;53.518;49.398;2023-04-06T14:51:15;6.53;118.99
67186;HTU21D;54116;53.518;49.398;2023-04-06T14:53:42;6.93;118.99
67186;HTU21D;54116;53.518;49.398;2023-04-06T14:56:27;8.78;118.99
67186;HTU21D;54116;53.518;49.398;2023-04-06T14:59:12;7.57;118.99
67186;HTU21D;54116;53.518;49.398;2023-04-06T15:01:38;7.99;118.99
67186;HTU21D;54116;53.518;49.398;2023-04-06T15:04:22;6.19;118.99
67186;HTU21D;54116;53.518;49.398;2023-04-06T15:06:48;6.27;118.99
67186;HTU21D;54116;53.518;49.398;2023-04-06T15:09:15;6.52;118.99
67186;HTU21D;54116;53.518;49.398;2023-04-06T15:11:41;5.69;118.99
67186;HTU21D;54116;53.518;49.398;2023-04-06T15:14:26;5.17;118.99
67186;HTU21D;54116;53.518;49.398;2023-04-06T15:22:40;5.68;118.99
67186;HTU21D;54116;53.518;49.398;2023-04-06T15:25:25;5.17;118.99
67186;HTU21D;54116;53.518;49.398;2023-04-06T15:27:51;5.37;118.99
67186;HTU21D;54116;53.518;49.398;2023-04-06T15:30:17;4.49;118.99
67186;HTU21D;54116;53.518;49.398;2023-04-06T15:32:52;4.95;118.99
67186;HTU21D;54116;53.518;49.398;2023-04-06T15:35:19;4.00;118.99
67186;HTU21D;54116;53.518;49.398;2023-04-06T15:37:46;4.41;118.99
67186;HTU21D;54116;53.518;49.398;2023-04-06T15:40:12;4.23;118.99
67186;HTU21D;54116;53.518;49.398;2023-04-06T15:42:42;4.93;118.99
67186;HTU21D;54116;53.518;49.398;2023-04-06T15:45:10;4.57;118.99
67186;HTU21D;54116;53.518;49.398;2023-04-06T15:47:37;4.17;118.99
67186;HTU21D;54116;53.518;49.398;2023-04-06T15:50:04;4.30;118.99
67186;HTU21D;54116;53.518;49.398;2023-04-06T15:52:31;4.22;118.99
67186;HTU21D;54116;53.518;49.398;2023-04-06T15:58:00;3.49;118.99
67186;HTU21D;54116;53.518;49.398;2023-04-06T16:00:45;3.69;118.99
67186;HTU21D;54116;53.518;49.398;2023-04-06T16:03:11;4.04;118.99
67186;HTU21D;54116;53.518;49.398;2023-04-06T16:05:37;4.13;118.99
67186;HTU21D;54116;53.518;49.398;2023-04-06T16:08:40;3.89;118.99
67186;HTU21D;54116;53.518;49.398;2023-04-06T16:11:06;3.18;118.99
67186;HTU21D;54116;53.518;49.398;2023-04-06T16:13:32;3.72;118.99
67186;HTU21D;54116;53.518;49.398;2023-04-06T16:15:59;3.86;118.99
67186;HTU21D;54116;53.518;49.398;2023-04-06T16:18:25;3.40;118.99
67186;HTU21D;54116;53.518;49.398;2023-04-06T16:21:16;3.14;118.99
67186;HTU21D;54116;53.518;49.398;2023-04-06T16:23:42;3.72;118.99
67186;HTU21D;54116;53.518;49.398;2023-04-06T16:26:28;3.43;118.99
67186;HTU21D;54116;53.518;49.398;2023-04-06T16:29:15;2.73;118.99
67186;HTU21D;54116;53.518;49.398;2023-04-06T16:34:45;3.12;118.99
67186;HTU21D;54116;53.518;49.398;2023-04-06T16:37:11;3.39;118.99
67186;HTU21D;54116;53.518;49.398;2023-04-06T16:39:37;3.12;118.99
67186;HTU21D;54116;53.518;49.398;2023-04-06T16:42:22;3.72;118.99
67186;HTU21D;54116;53.518;49.398;2023-04-06T16:44:48;2.65;118.99
67186;HTU21D;54116;53.518;49.398;2023-04-06T16:47:15;5.90;118.99
67186;HTU21D;54116;53.518;49.398;2023-04-06T16:49:43;2.60;118.99
67186;HTU21D;54116;53.518;49.398;2023-04-06T16:52:28;2.90;118.99
67186;HTU21D;54116;53.518;49.398;2023-04-06T16:58:22;3.12;118.99
67186;HTU21D;54116;53.518;49.398;2023-04-06T17:00:49;3.20;118.99
67186;HTU21D;54116;53.518;49.398;2023-04-06T17:03:15;6.07;118.99
67186;HTU21D;54116;53.518;49.398;2023-04-06T17:06:18;5.90;118.99
67186;HTU21D;54116;53.518;49.398;2023-04-06T17:08:46;5.83;118.99
67186;HTU21D;54116;53.518;49.398;2023-04-06T17:11:13;5.95;118.99
67186;HTU21D;54116;53.518;49.398;2023-04-06T17:13:40;6.15;118.99
67186;HTU21D;54116;53.518;49.398;2023-04-06T17:16:07;6.12;118.99
67186;HTU21D;54116;53.518;49.398;2023-04-06T17:18:52;5.93;118.99
67186;HTU21D;54116;53.518;49.398;2023-04-06T17:21:18;5.63;118.99
67186;HTU21D;54116;53.518;49.398;2023-04-06T17:23:46;6.55;118.99
67186;HTU21D;54116;53.518;49.398;2023-04-06T17:28:57;6.19;118.99
67186;HTU21D;54116;53.518;49.398;2023-04-06T17:31:23;6.54;118.99